Terminal Aerodrome Forecast
Issued by NWS Quad Cities IA IL

Home | Current Version | Previous Version | Text Only | Print | Product List | Glossary On
Versions: 1 2 3 4 5 6 7 8 9 10 11 12 13 14
640
FTUS43 KDVN 230520
TAFDBQ
TAF
KDBQ 230520Z 2306/2406 14012KT P6SM BKN150
     FM231500 16017G25KT P6SM OVC080
     FM232000 17015G23KT P6SM VCSH BKN025
     FM240300 16012KT P6SM BKN040=

USA.gov is the U.S. government's official web portal to all federal, state and local government web resources and services.